sensor_id;sensor_type;location;lat;lon;timestamp;temperature;humidity
11615;DHT22;5863;52.832;4.758;2023-07-24T00:00:13;18.20;99.90
11615;DHT22;5863;52.832;4.758;2023-07-24T00:02:39;18.30;99.90
11615;DHT22;5863;52.832;4.758;2023-07-24T00:05:07;18.20;99.90
11615;DHT22;5863;52.832;4.758;2023-07-24T00:07:35;18.20;99.90
11615;DHT22;5863;52.832;4.758;2023-07-24T00:10:02;18.20;99.90
11615;DHT22;5863;52.832;4.758;2023-07-24T00:12:29;18.20;99.90
11615;DHT22;5863;52.832;4.758;2023-07-24T00:14:56;18.20;99.90
11615;DHT22;5863;52.832;4.758;2023-07-24T00:17:22;18.20;99.90
11615;DHT22;5863;52.832;4.758;2023-07-24T00:19:49;18.20;99.90
11615;DHT22;5863;52.832;4.758;2023-07-24T00:22:15;18.20;99.90
11615;DHT22;5863;52.832;4.758;2023-07-24T00:24:43;18.20;99.90
11615;DHT22;5863;52.832;4.758;2023-07-24T00:27:10;18.20;99.90
11615;DHT22;5863;52.832;4.758;2023-07-24T00:29:37;18.20;99.90
11615;DHT22;5863;52.832;4.758;2023-07-24T00:32:04;18.20;99.90
11615;DHT22;5863;52.832;4.758;2023-07-24T00:34:31;18.20;99.90
11615;DHT22;5863;52.832;4.758;2023-07-24T00:36:58;18.20;99.90
11615;DHT22;5863;52.832;4.758;2023-07-24T00:39:24;18.20;99.90
11615;DHT22;5863;52.832;4.758;2023-07-24T00:41:55;18.20;99.90
11615;DHT22;5863;52.832;4.758;2023-07-24T00:44:21;18.30;99.90
11615;DHT22;5863;52.832;4.758;2023-07-24T00:46:48;18.20;99.90
11615;DHT22;5863;52.832;4.758;2023-07-24T00:49:16;18.20;99.90
11615;DHT22;5863;52.832;4.758;2023-07-24T00:51:43;18.20;99.90
11615;DHT22;5863;52.832;4.758;2023-07-24T00:54:11;18.20;99.90
11615;DHT22;5863;52.832;4.758;2023-07-24T00:56:39;18.30;99.90
11615;DHT22;5863;52.832;4.758;2023-07-24T00:59:07;18.30;99.90
11615;DHT22;5863;52.832;4.758;2023-07-24T01:01:35;18.30;99.90
11615;DHT22;5863;52.832;4.758;2023-07-24T01:04:04;18.40;99.90
11615;DHT22;5863;52.832;4.758;2023-07-24T01:06:32;18.30;99.90
11615;DHT22;5863;52.832;4.758;2023-07-24T01:08:58;18.30;99.90
11615;DHT22;5863;52.832;4.758;2023-07-24T01:11:28;18.30;99.90
11615;DHT22;5863;52.832;4.758;2023-07-24T01:13:58;18.30;99.90
11615;DHT22;5863;52.832;4.758;2023-07-24T01:16:36;18.30;99.90
11615;DHT22;5863;52.832;4.758;2023-07-24T01:19:04;18.30;99.90
11615;DHT22;5863;52.832;4.758;2023-07-24T01:21:44;18.30;99.90
11615;DHT22;5863;52.832;4.758;2023-07-24T01:24:23;18.30;99.90
11615;DHT22;5863;52.832;4.758;2023-07-24T01:26:52;18.30;99.90
11615;DHT22;5863;52.832;4.758;2023-07-24T01:29:18;18.30;99.90
11615;DHT22;5863;52.832;4.758;2023-07-24T01:31:45;18.20;99.90
11615;DHT22;5863;52.832;4.758;2023-07-24T01:34:12;18.20;99.90
11615;DHT22;5863;52.832;4.758;2023-07-24T01:36:39;18.20;99.90
11615;DHT22;5863;52.832;4.758;2023-07-24T01:39:05;18.30;99.90
11615;DHT22;5863;52.832;4.758;2023-07-24T01:41:32;18.20;99.90
11615;DHT22;5863;52.832;4.758;2023-07-24T01:44:01;18.20;99.90
11615;DHT22;5863;52.832;4.758;2023-07-24T01:46:27;18.20;99.90
11615;DHT22;5863;52.832;4.758;2023-07-24T01:48:54;18.20;99.90
11615;DHT22;5863;52.832;4.758;2023-07-24T01:51:20;18.30;99.90
11615;DHT22;5863;52.832;4.758;2023-07-24T01:53:47;18.20;99.90
11615;DHT22;5863;52.832;4.758;2023-07-24T01:56:14;18.20;99.90
11615;DHT22;5863;52.832;4.758;2023-07-24T01:58:40;18.20;99.90
11615;DHT22;5863;52.832;4.758;2023-07-24T02:01:08;18.20;99.90
11615;DHT22;5863;52.832;4.758;2023-07-24T02:03:35;18.20;99.90
11615;DHT22;5863;52.832;4.758;2023-07-24T02:06:02;18.20;99.90
11615;DHT22;5863;52.832;4.758;2023-07-24T02:08:28;18.20;99.90
11615;DHT22;5863;52.832;4.758;2023-07-24T02:10:55;18.20;99.90
11615;DHT22;5863;52.832;4.758;2023-07-24T02:13:22;18.20;99.90
11615;DHT22;5863;52.832;4.758;2023-07-24T02:15:48;18.20;99.90
11615;DHT22;5863;52.832;4.758;2023-07-24T02:18:16;18.30;99.90
11615;DHT22;5863;52.832;4.758;2023-07-24T02:20:48;18.20;99.90
11615;DHT22;5863;52.832;4.758;2023-07-24T02:23:15;18.10;99.90
11615;DHT22;5863;52.832;4.758;2023-07-24T02:25:42;18.20;99.90
11615;DHT22;5863;52.832;4.758;2023-07-24T02:28:09;18.20;99.90
11615;DHT22;5863;52.832;4.758;2023-07-24T02:30:38;18.20;99.90
11615;DHT22;5863;52.832;4.758;2023-07-24T02:33:04;18.20;99.90
11615;DHT22;5863;52.832;4.758;2023-07-24T02:35:38;18.20;99.90
11615;DHT22;5863;52.832;4.758;2023-07-24T02:38:05;18.20;99.90
11615;DHT22;5863;52.832;4.758;2023-07-24T02:40:32;18.30;99.90
11615;DHT22;5863;52.832;4.758;2023-07-24T02:42:58;18.30;99.90
11615;DHT22;5863;52.832;4.758;2023-07-24T02:45:25;18.20;99.90
11615;DHT22;5863;52.832;4.758;2023-07-24T02:47:52;18.20;99.90
11615;DHT22;5863;52.832;4.758;2023-07-24T02:50:18;18.30;99.90
11615;DHT22;5863;52.832;4.758;2023-07-24T02:52:46;18.20;99.90
11615;DHT22;5863;52.832;4.758;2023-07-24T02:55:13;18.20;99.90
11615;DHT22;5863;52.832;4.758;2023-07-24T02:57:40;18.20;99.90
11615;DHT22;5863;52.832;4.758;2023-07-24T03:00:07;18.20;99.90
11615;DHT22;5863;52.832;4.758;2023-07-24T03:02:34;18.30;99.90
11615;DHT22;5863;52.832;4.758;2023-07-24T03:05:01;18.20;99.90
11615;DHT22;5863;52.832;4.758;2023-07-24T03:07:29;18.20;99.90
11615;DHT22;5863;52.832;4.758;2023-07-24T03:09:57;18.20;99.90
11615;DHT22;5863;52.832;4.758;2023-07-24T03:12:24;18.30;99.90
11615;DHT22;5863;52.832;4.758;2023-07-24T03:14:51;18.20;99.90
11615;DHT22;5863;52.832;4.758;2023-07-24T03:17:17;18.20;99.90
11615;DHT22;5863;52.832;4.758;2023-07-24T03:19:44;18.20;99.90
11615;DHT22;5863;52.832;4.758;2023-07-24T03:22:11;18.20;99.90
11615;DHT22;5863;52.832;4.758;2023-07-24T03:24:39;18.20;99.90
11615;DHT22;5863;52.832;4.758;2023-07-24T03:27:07;18.10;99.90
11615;DHT22;5863;52.832;4.758;2023-07-24T03:29:33;18.10;99.90
11615;DHT22;5863;52.832;4.758;2023-07-24T03:32:01;18.20;99.90
11615;DHT22;5863;52.832;4.758;2023-07-24T03:34:28;18.10;99.90
11615;DHT22;5863;52.832;4.758;2023-07-24T03:36:55;18.10;99.90
11615;DHT22;5863;52.832;4.758;2023-07-24T03:39:21;18.10;99.90
11615;DHT22;5863;52.832;4.758;2023-07-24T03:41:48;18.10;99.90
11615;DHT22;5863;52.832;4.758;2023-07-24T03:44:16;18.20;99.90
11615;DHT22;5863;52.832;4.758;2023-07-24T03:46:43;18.10;99.90
11615;DHT22;5863;52.832;4.758;2023-07-24T03:49:09;18.10;99.90
11615;DHT22;5863;52.832;4.758;2023-07-24T03:51:36;18.10;99.90
11615;DHT22;5863;52.832;4.758;2023-07-24T03:54:03;18.20;99.90
11615;DHT22;5863;52.832;4.758;2023-07-24T03:56:29;18.10;99.90
11615;DHT22;5863;52.832;4.758;2023-07-24T03:58:56;18.10;99.90
11615;DHT22;5863;52.832;4.758;2023-07-24T04:01:24;18.10;99.90
11615;DHT22;5863;52.832;4.758;2023-07-24T04:03:51;18.20;99.90
11615;DHT22;5863;52.832;4.758;2023-07-24T04:06:18;18.20;99.90
11615;DHT22;5863;52.832;4.758;2023-07-24T04:08:45;18.20;99.90
11615;DHT22;5863;52.832;4.758;2023-07-24T04:11:11;18.20;99.90
11615;DHT22;5863;52.832;4.758;2023-07-24T04:13:38;18.20;99.90
11615;DHT22;5863;52.832;4.758;2023-07-24T04:16:05;18.10;99.90
11615;DHT22;5863;52.832;4.758;2023-07-24T04:18:33;18.20;99.90
11615;DHT22;5863;52.832;4.758;2023-07-24T04:20:59;18.20;99.90
11615;DHT22;5863;52.832;4.758;2023-07-24T04:23:26;18.20;99.90
11615;DHT22;5863;52.832;4.758;2023-07-24T04:25:53;18.20;99.90
11615;DHT22;5863;52.832;4.758;2023-07-24T04:28:19;18.10;99.90
11615;DHT22;5863;52.832;4.758;2023-07-24T04:30:46;18.20;99.90
11615;DHT22;5863;52.832;4.758;2023-07-24T04:33:13;18.10;99.90
11615;DHT22;5863;52.832;4.758;2023-07-24T04:35:41;18.10;99.90
11615;DHT22;5863;52.832;4.758;2023-07-24T04:38:08;18.10;99.90
11615;DHT22;5863;52.832;4.758;2023-07-24T04:40:34;18.10;99.90
11615;DHT22;5863;52.832;4.758;2023-07-24T04:43:01;18.10;99.90
11615;DHT22;5863;52.832;4.758;2023-07-24T04:45:30;18.10;99.90
11615;DHT22;5863;52.832;4.758;2023-07-24T04:47:57;18.20;99.90
11615;DHT22;5863;52.832;4.758;2023-07-24T04:50:24;18.10;99.90
11615;DHT22;5863;52.832;4.758;2023-07-24T04:52:52;18.10;99.90
11615;DHT22;5863;52.832;4.758;2023-07-24T04:55:18;18.20;99.90
11615;DHT22;5863;52.832;4.758;2023-07-24T04:57:46;18.10;99.90
11615;DHT22;5863;52.832;4.758;2023-07-24T05:00:13;18.10;99.90
11615;DHT22;5863;52.832;4.758;2023-07-24T05:02:40;18.10;99.90
11615;DHT22;5863;52.832;4.758;2023-07-24T05:05:08;18.20;99.90
11615;DHT22;5863;52.832;4.758;2023-07-24T05:07:34;18.20;99.90
11615;DHT22;5863;52.832;4.758;2023-07-24T05:10:05;18.20;99.90
11615;DHT22;5863;52.832;4.758;2023-07-24T05:12:32;18.20;99.90
11615;DHT22;5863;52.832;4.758;2023-07-24T05:14:59;18.30;99.90
11615;DHT22;5863;52.832;4.758;2023-07-24T05:17:25;18.30;99.90
11615;DHT22;5863;52.832;4.758;2023-07-24T05:19:52;18.30;99.90
11615;DHT22;5863;52.832;4.758;2023-07-24T05:22:19;18.30;99.90
11615;DHT22;5863;52.832;4.758;2023-07-24T05:24:45;18.30;99.90
11615;DHT22;5863;52.832;4.758;2023-07-24T05:27:13;18.30;99.90
11615;DHT22;5863;52.832;4.758;2023-07-24T05:29:41;18.30;99.90
11615;DHT22;5863;52.832;4.758;2023-07-24T05:32:08;18.40;99.90
11615;DHT22;5863;52.832;4.758;2023-07-24T05:34:35;18.40;99.90
11615;DHT22;5863;52.832;4.758;2023-07-24T05:37:02;18.50;99.90
11615;DHT22;5863;52.832;4.758;2023-07-24T05:39:29;18.50;99.90
11615;DHT22;5863;52.832;4.758;2023-07-24T05:41:56;18.50;99.90
11615;DHT22;5863;52.832;4.758;2023-07-24T05:44:24;18.60;99.90
11615;DHT22;5863;52.832;4.758;2023-07-24T05:46:51;18.70;99.90
11615;DHT22;5863;52.832;4.758;2023-07-24T05:49:17;18.70;99.90
11615;DHT22;5863;52.832;4.758;2023-07-24T05:51:44;18.90;99.90
11615;DHT22;5863;52.832;4.758;2023-07-24T05:54:11;18.90;99.90
11615;DHT22;5863;52.832;4.758;2023-07-24T05:56:37;19.00;99.90
11615;DHT22;5863;52.832;4.758;2023-07-24T05:59:04;18.90;99.90
11615;DHT22;5863;52.832;4.758;2023-07-24T06:01:32;18.80;99.90
11615;DHT22;5863;52.832;4.758;2023-07-24T06:03:59;18.80;99.90
11615;DHT22;5863;52.832;4.758;2023-07-24T06:06:25;18.80;99.90
11615;DHT22;5863;52.832;4.758;2023-07-24T06:08:53;18.70;99.90
11615;DHT22;5863;52.832;4.758;2023-07-24T06:11:20;18.70;99.90
11615;DHT22;5863;52.832;4.758;2023-07-24T06:13:48;18.70;99.90
11615;DHT22;5863;52.832;4.758;2023-07-24T06:16:15;18.80;99.90
11615;DHT22;5863;52.832;4.758;2023-07-24T06:18:43;18.80;99.90
11615;DHT22;5863;52.832;4.758;2023-07-24T06:21:09;18.70;99.90
11615;DHT22;5863;52.832;4.758;2023-07-24T06:23:36;18.70;99.90
11615;DHT22;5863;52.832;4.758;2023-07-24T06:26:03;18.70;99.90
11615;DHT22;5863;52.832;4.758;2023-07-24T06:28:29;18.70;99.90
11615;DHT22;5863;52.832;4.758;2023-07-24T06:30:57;18.70;99.90
11615;DHT22;5863;52.832;4.758;2023-07-24T06:33:24;18.80;99.90
11615;DHT22;5863;52.832;4.758;2023-07-24T06:35:52;18.90;99.90
11615;DHT22;5863;52.832;4.758;2023-07-24T06:38:18;19.10;99.90
11615;DHT22;5863;52.832;4.758;2023-07-24T06:40:46;19.10;99.90
11615;DHT22;5863;52.832;4.758;2023-07-24T06:43:13;19.20;99.90
11615;DHT22;5863;52.832;4.758;2023-07-24T06:45:40;19.20;99.90
11615;DHT22;5863;52.832;4.758;2023-07-24T06:48:06;19.20;99.90
11615;DHT22;5863;52.832;4.758;2023-07-24T06:50:33;19.20;99.90
11615;DHT22;5863;52.832;4.758;2023-07-24T06:53:01;19.20;99.90
11615;DHT22;5863;52.832;4.758;2023-07-24T06:55:28;19.10;99.90
11615;DHT22;5863;52.832;4.758;2023-07-24T06:57:54;19.10;99.90
11615;DHT22;5863;52.832;4.758;2023-07-24T07:00:21;19.10;99.90
11615;DHT22;5863;52.832;4.758;2023-07-24T07:02:48;19.10;99.90
11615;DHT22;5863;52.832;4.758;2023-07-24T07:05:14;19.20;99.90
11615;DHT22;5863;52.832;4.758;2023-07-24T07:07:41;19.20;99.90
11615;DHT22;5863;52.832;4.758;2023-07-24T07:10:09;19.30;99.90
11615;DHT22;5863;52.832;4.758;2023-07-24T07:12:36;19.30;99.90
11615;DHT22;5863;52.832;4.758;2023-07-24T07:15:03;19.40;99.90
11615;DHT22;5863;52.832;4.758;2023-07-24T07:17:30;19.50;99.90
11615;DHT22;5863;52.832;4.758;2023-07-24T07:19:56;19.40;99.90
11615;DHT22;5863;52.832;4.758;2023-07-24T07:22:23;19.30;99.90
11615;DHT22;5863;52.832;4.758;2023-07-24T07:24:50;19.20;99.90
11615;DHT22;5863;52.832;4.758;2023-07-24T07:27:18;19.20;99.90
11615;DHT22;5863;52.832;4.758;2023-07-24T07:29:44;19.10;99.90
11615;DHT22;5863;52.832;4.758;2023-07-24T07:32:11;19.10;99.90
11615;DHT22;5863;52.832;4.758;2023-07-24T07:34:37;19.10;99.90
11615;DHT22;5863;52.832;4.758;2023-07-24T07:37:05;19.10;99.90
11615;DHT22;5863;52.832;4.758;2023-07-24T07:39:31;19.20;99.90
11615;DHT22;5863;52.832;4.758;2023-07-24T07:41:58;19.30;99.90
11615;DHT22;5863;52.832;4.758;2023-07-24T07:44:26;19.40;99.90
11615;DHT22;5863;52.832;4.758;2023-07-24T07:46:53;19.50;99.90
11615;DHT22;5863;52.832;4.758;2023-07-24T07:49:20;19.80;99.90
11615;DHT22;5863;52.832;4.758;2023-07-24T07:51:46;20.20;99.90
11615;DHT22;5863;52.832;4.758;2023-07-24T07:54:13;20.40;99.90
11615;DHT22;5863;52.832;4.758;2023-07-24T07:56:41;20.80;99.90
11615;DHT22;5863;52.832;4.758;2023-07-24T07:59:07;21.30;99.90
11615;DHT22;5863;52.832;4.758;2023-07-24T08:01:37;21.40;99.90
11615;DHT22;5863;52.832;4.758;2023-07-24T08:04:04;21.40;99.90
11615;DHT22;5863;52.832;4.758;2023-07-24T08:06:31;21.20;99.90
11615;DHT22;5863;52.832;4.758;2023-07-24T08:08:58;21.00;99.90
11615;DHT22;5863;52.832;4.758;2023-07-24T08:11:24;21.00;99.90
11615;DHT22;5863;52.832;4.758;2023-07-24T08:13:51;20.90;99.90
11615;DHT22;5863;52.832;4.758;2023-07-24T08:16:18;20.90;99.90
11615;DHT22;5863;52.832;4.758;2023-07-24T08:18:47;21.00;99.90
11615;DHT22;5863;52.832;4.758;2023-07-24T08:21:14;21.20;99.90
11615;DHT22;5863;52.832;4.758;2023-07-24T08:23:41;21.20;99.90
11615;DHT22;5863;52.832;4.758;2023-07-24T08:26:08;21.30;99.90
11615;DHT22;5863;52.832;4.758;2023-07-24T08:28:34;21.20;99.90
11615;DHT22;5863;52.832;4.758;2023-07-24T08:31:02;21.40;99.90
11615;DHT22;5863;52.832;4.758;2023-07-24T08:33:28;21.70;99.90
11615;DHT22;5863;52.832;4.758;2023-07-24T08:36:01;22.10;99.90
11615;DHT22;5863;52.832;4.758;2023-07-24T08:38:29;22.60;99.90
11615;DHT22;5863;52.832;4.758;2023-07-24T08:41:03;22.80;99.90
11615;DHT22;5863;52.832;4.758;2023-07-24T08:43:30;23.00;99.90
11615;DHT22;5863;52.832;4.758;2023-07-24T08:45:58;23.00;99.90
11615;DHT22;5863;52.832;4.758;2023-07-24T08:48:26;22.90;99.90
11615;DHT22;5863;52.832;4.758;2023-07-24T08:50:56;22.90;99.90
11615;DHT22;5863;52.832;4.758;2023-07-24T08:53:25;22.90;99.90
11615;DHT22;5863;52.832;4.758;2023-07-24T08:55:52;22.80;99.90
11615;DHT22;5863;52.832;4.758;2023-07-24T08:58:20;22.60;99.90
11615;DHT22;5863;52.832;4.758;2023-07-24T09:00:46;22.50;99.90
11615;DHT22;5863;52.832;4.758;2023-07-24T09:03:13;22.20;99.90
11615;DHT22;5863;52.832;4.758;2023-07-24T09:05:40;22.10;99.90
11615;DHT22;5863;52.832;4.758;2023-07-24T09:08:07;21.90;99.90
11615;DHT22;5863;52.832;4.758;2023-07-24T09:10:35;21.80;99.90
11615;DHT22;5863;52.832;4.758;2023-07-24T09:13:01;21.70;99.90
11615;DHT22;5863;52.832;4.758;2023-07-24T09:15:29;21.60;99.90
11615;DHT22;5863;52.832;4.758;2023-07-24T09:17:56;21.50;99.90
11615;DHT22;5863;52.832;4.758;2023-07-24T09:20:22;21.40;99.90
11615;DHT22;5863;52.832;4.758;2023-07-24T09:22:49;21.30;99.90
11615;DHT22;5863;52.832;4.758;2023-07-24T09:25:16;21.20;99.90
11615;DHT22;5863;52.832;4.758;2023-07-24T09:27:44;21.20;99.90
11615;DHT22;5863;52.832;4.758;2023-07-24T09:30:12;21.00;99.90
11615;DHT22;5863;52.832;4.758;2023-07-24T09:32:39;21.00;99.90
11615;DHT22;5863;52.832;4.758;2023-07-24T09:35:16;20.90;99.90
11615;DHT22;5863;52.832;4.758;2023-07-24T09:37:43;20.90;99.90
11615;DHT22;5863;52.832;4.758;2023-07-24T09:40:11;20.90;99.90
11615;DHT22;5863;52.832;4.758;2023-07-24T09:42:38;20.90;99.90
11615;DHT22;5863;52.832;4.758;2023-07-24T09:45:09;21.00;99.90
11615;DHT22;5863;52.832;4.758;2023-07-24T09:47:36;21.00;99.90
11615;DHT22;5863;52.832;4.758;2023-07-24T09:50:03;21.00;99.90
11615;DHT22;5863;52.832;4.758;2023-07-24T09:52:30;20.90;99.90
11615;DHT22;5863;52.832;4.758;2023-07-24T09:55:01;20.80;99.90
11615;DHT22;5863;52.832;4.758;2023-07-24T09:57:29;20.70;99.90
11615;DHT22;5863;52.832;4.758;2023-07-24T09:59:57;20.70;99.90
11615;DHT22;5863;52.832;4.758;2023-07-24T10:02:25;20.50;99.90
11615;DHT22;5863;52.832;4.758;2023-07-24T10:04:53;20.50;99.90
11615;DHT22;5863;52.832;4.758;2023-07-24T10:07:20;20.60;99.90
11615;DHT22;5863;52.832;4.758;2023-07-24T10:09:47;20.50;99.90
11615;DHT22;5863;52.832;4.758;2023-07-24T10:12:15;20.40;99.90
11615;DHT22;5863;52.832;4.758;2023-07-24T10:14:43;20.40;99.90
11615;DHT22;5863;52.832;4.758;2023-07-24T10:17:10;20.30;99.90
11615;DHT22;5863;52.832;4.758;2023-07-24T10:19:40;20.40;99.90
11615;DHT22;5863;52.832;4.758;2023-07-24T10:22:09;20.40;99.90
11615;DHT22;5863;52.832;4.758;2023-07-24T10:24:36;20.40;99.90
11615;DHT22;5863;52.832;4.758;2023-07-24T10:27:03;20.40;99.90
11615;DHT22;5863;52.832;4.758;2023-07-24T10:29:34;20.40;99.90
11615;DHT22;5863;52.832;4.758;2023-07-24T10:32:02;20.40;99.90
11615;DHT22;5863;52.832;4.758;2023-07-24T10:34:36;20.50;99.90
11615;DHT22;5863;52.832;4.758;2023-07-24T10:37:07;20.60;99.90
11615;DHT22;5863;52.832;4.758;2023-07-24T10:39:38;20.80;99.90
11615;DHT22;5863;52.832;4.758;2023-07-24T10:42:07;20.90;99.90
11615;DHT22;5863;52.832;4.758;2023-07-24T10:44:33;21.00;99.90
11615;DHT22;5863;52.832;4.758;2023-07-24T10:47:01;21.10;99.90
11615;DHT22;5863;52.832;4.758;2023-07-24T10:49:27;21.10;99.90
11615;DHT22;5863;52.832;4.758;2023-07-24T10:51:55;21.10;99.90
11615;DHT22;5863;52.832;4.758;2023-07-24T10:54:23;21.20;99.90
11615;DHT22;5863;52.832;4.758;2023-07-24T10:56:57;21.10;99.90
11615;DHT22;5863;52.832;4.758;2023-07-24T10:59:35;21.10;99.90
11615;DHT22;5863;52.832;4.758;2023-07-24T11:02:03;21.30;99.90
11615;DHT22;5863;52.832;4.758;2023-07-24T11:04:30;21.50;99.90
11615;DHT22;5863;52.832;4.758;2023-07-24T11:06:57;21.70;99.90
11615;DHT22;5863;52.832;4.758;2023-07-24T11:09:35;21.90;99.90
11615;DHT22;5863;52.832;4.758;2023-07-24T11:12:12;22.10;99.90
11615;DHT22;5863;52.832;4.758;2023-07-24T11:14:47;22.20;99.90
11615;DHT22;5863;52.832;4.758;2023-07-24T11:17:14;22.40;99.90
11615;DHT22;5863;52.832;4.758;2023-07-24T11:19:40;22.50;99.90
11615;DHT22;5863;52.832;4.758;2023-07-24T11:22:07;22.40;99.90
11615;DHT22;5863;52.832;4.758;2023-07-24T11:24:43;22.20;99.90
11615;DHT22;5863;52.832;4.758;2023-07-24T11:27:12;22.00;99.90
11615;DHT22;5863;52.832;4.758;2023-07-24T11:29:40;21.90;99.90
11615;DHT22;5863;52.832;4.758;2023-07-24T11:32:07;21.70;99.90
11615;DHT22;5863;52.832;4.758;2023-07-24T11:34:34;21.50;99.90
11615;DHT22;5863;52.832;4.758;2023-07-24T11:37:05;21.30;99.90
11615;DHT22;5863;52.832;4.758;2023-07-24T11:39:32;21.10;99.90
11615;DHT22;5863;52.832;4.758;2023-07-24T11:42:00;20.90;99.90
11615;DHT22;5863;52.832;4.758;2023-07-24T11:44:30;20.80;99.90
11615;DHT22;5863;52.832;4.758;2023-07-24T11:47:04;20.70;99.90
11615;DHT22;5863;52.832;4.758;2023-07-24T11:49:32;20.60;99.90
11615;DHT22;5863;52.832;4.758;2023-07-24T11:52:03;20.50;99.90
11615;DHT22;5863;52.832;4.758;2023-07-24T11:54:30;20.50;99.90
11615;DHT22;5863;52.832;4.758;2023-07-24T11:56:57;20.40;99.90
11615;DHT22;5863;52.832;4.758;2023-07-24T11:59:25;20.30;99.90
11615;DHT22;5863;52.832;4.758;2023-07-24T12:01:53;20.30;99.90
11615;DHT22;5863;52.832;4.758;2023-07-24T12:04:20;20.30;99.90
11615;DHT22;5863;52.832;4.758;2023-07-24T12:06:47;20.30;99.90
11615;DHT22;5863;52.832;4.758;2023-07-24T12:09:15;20.40;99.90
11615;DHT22;5863;52.832;4.758;2023-07-24T12:11:43;20.50;99.90
11615;DHT22;5863;52.832;4.758;2023-07-24T12:14:10;20.60;99.90
11615;DHT22;5863;52.832;4.758;2023-07-24T12:16:38;20.80;99.90
11615;DHT22;5863;52.832;4.758;2023-07-24T12:19:05;20.80;99.90
11615;DHT22;5863;52.832;4.758;2023-07-24T12:21:32;20.90;99.90
11615;DHT22;5863;52.832;4.758;2023-07-24T12:23:58;20.80;99.90
11615;DHT22;5863;52.832;4.758;2023-07-24T12:26:25;20.70;99.90
11615;DHT22;5863;52.832;4.758;2023-07-24T12:28:53;20.60;99.90
11615;DHT22;5863;52.832;4.758;2023-07-24T12:31:19;20.50;99.90
11615;DHT22;5863;52.832;4.758;2023-07-24T12:33:47;20.20;99.90
11615;DHT22;5863;52.832;4.758;2023-07-24T12:36:14;20.10;99.90
11615;DHT22;5863;52.832;4.758;2023-07-24T12:38:41;20.10;99.90
11615;DHT22;5863;52.832;4.758;2023-07-24T12:41:08;20.00;99.90
11615;DHT22;5863;52.832;4.758;2023-07-24T12:43:35;20.00;99.90
11615;DHT22;5863;52.832;4.758;2023-07-24T12:46:01;20.00;99.90
11615;DHT22;5863;52.832;4.758;2023-07-24T12:48:28;19.90;99.90
11615;DHT22;5863;52.832;4.758;2023-07-24T12:50:58;20.00;99.90
11615;DHT22;5863;52.832;4.758;2023-07-24T12:53:25;19.90;99.90
11615;DHT22;5863;52.832;4.758;2023-07-24T12:55:52;19.90;99.90
11615;DHT22;5863;52.832;4.758;2023-07-24T12:58:19;19.80;99.90
11615;DHT22;5863;52.832;4.758;2023-07-24T13:00:46;19.70;99.90
11615;DHT22;5863;52.832;4.758;2023-07-24T13:03:12;19.60;99.90
11615;DHT22;5863;52.832;4.758;2023-07-24T13:05:43;19.50;99.90
11615;DHT22;5863;52.832;4.758;2023-07-24T13:08:12;19.50;99.90
11615;DHT22;5863;52.832;4.758;2023-07-24T13:10:38;19.50;99.90
11615;DHT22;5863;52.832;4.758;2023-07-24T13:13:05;19.50;99.90
11615;DHT22;5863;52.832;4.758;2023-07-24T13:15:32;19.40;99.90
11615;DHT22;5863;52.832;4.758;2023-07-24T13:17:58;19.30;99.90
11615;DHT22;5863;52.832;4.758;2023-07-24T13:20:25;19.20;99.90
11615;DHT22;5863;52.832;4.758;2023-07-24T13:22:52;18.90;99.90
11615;DHT22;5863;52.832;4.758;2023-07-24T13:25:20;18.80;99.90
11615;DHT22;5863;52.832;4.758;2023-07-24T13:27:49;18.70;99.90
11615;DHT22;5863;52.832;4.758;2023-07-24T13:30:18;18.60;99.90
11615;DHT22;5863;52.832;4.758;2023-07-24T13:32:44;18.60;99.90
11615;DHT22;5863;52.832;4.758;2023-07-24T13:35:11;18.70;99.90
11615;DHT22;5863;52.832;4.758;2023-07-24T13:37:38;18.70;99.90
11615;DHT22;5863;52.832;4.758;2023-07-24T13:40:06;18.70;99.90
11615;DHT22;5863;52.832;4.758;2023-07-24T13:42:34;18.70;99.90
11615;DHT22;5863;52.832;4.758;2023-07-24T13:45:01;18.60;99.90
11615;DHT22;5863;52.832;4.758;2023-07-24T13:47:27;18.60;99.90
11615;DHT22;5863;52.832;4.758;2023-07-24T13:49:54;18.60;99.90
11615;DHT22;5863;52.832;4.758;2023-07-24T13:52:21;18.60;99.90
11615;DHT22;5863;52.832;4.758;2023-07-24T13:54:47;18.50;99.90
11615;DHT22;5863;52.832;4.758;2023-07-24T13:57:14;18.50;99.90
11615;DHT22;5863;52.832;4.758;2023-07-24T13:59:42;18.60;99.90
11615;DHT22;5863;52.832;4.758;2023-07-24T14:02:09;18.50;99.90
11615;DHT22;5863;52.832;4.758;2023-07-24T14:04:35;18.60;99.90
11615;DHT22;5863;52.832;4.758;2023-07-24T14:07:02;18.70;99.90
11615;DHT22;5863;52.832;4.758;2023-07-24T14:09:29;18.70;99.90
11615;DHT22;5863;52.832;4.758;2023-07-24T14:11:56;18.80;99.90
11615;DHT22;5863;52.832;4.758;2023-07-24T14:14:23;18.80;99.90
11615;DHT22;5863;52.832;4.758;2023-07-24T14:16:51;18.80;99.90
11615;DHT22;5863;52.832;4.758;2023-07-24T14:19:18;18.80;99.90
11615;DHT22;5863;52.832;4.758;2023-07-24T14:21:45;18.80;99.90
11615;DHT22;5863;52.832;4.758;2023-07-24T14:24:11;18.80;99.90
11615;DHT22;5863;52.832;4.758;2023-07-24T14:26:39;18.80;99.90
11615;DHT22;5863;52.832;4.758;2023-07-24T14:29:05;18.80;99.90
11615;DHT22;5863;52.832;4.758;2023-07-24T14:31:32;18.80;99.90
11615;DHT22;5863;52.832;4.758;2023-07-24T14:34:00;18.80;99.90
11615;DHT22;5863;52.832;4.758;2023-07-24T14:36:27;18.70;99.90
11615;DHT22;5863;52.832;4.758;2023-07-24T14:38:59;18.70;99.90
11615;DHT22;5863;52.832;4.758;2023-07-24T14:41:25;18.70;99.90
11615;DHT22;5863;52.832;4.758;2023-07-24T14:43:52;18.80;99.90
11615;DHT22;5863;52.832;4.758;2023-07-24T14:46:19;18.80;99.90
11615;DHT22;5863;52.832;4.758;2023-07-24T14:48:45;18.90;99.90
11615;DHT22;5863;52.832;4.758;2023-07-24T14:51:13;18.90;99.90
11615;DHT22;5863;52.832;4.758;2023-07-24T14:53:40;18.90;99.90
11615;DHT22;5863;52.832;4.758;2023-07-24T14:56:07;18.80;99.90
11615;DHT22;5863;52.832;4.758;2023-07-24T14:58:33;18.90;99.90
11615;DHT22;5863;52.832;4.758;2023-07-24T15:01:00;18.90;99.90
11615;DHT22;5863;52.832;4.758;2023-07-24T15:03:27;18.90;99.90
11615;DHT22;5863;52.832;4.758;2023-07-24T15:05:53;18.90;99.90
11615;DHT22;5863;52.832;4.758;2023-07-24T15:08:23;18.80;99.90
11615;DHT22;5863;52.832;4.758;2023-07-24T15:10:49;18.80;99.90
11615;DHT22;5863;52.832;4.758;2023-07-24T15:13:16;18.70;99.90
11615;DHT22;5863;52.832;4.758;2023-07-24T15:15:42;18.80;99.90
11615;DHT22;5863;52.832;4.758;2023-07-24T15:18:09;18.80;99.90
11615;DHT22;5863;52.832;4.758;2023-07-24T15:20:36;18.80;99.90
11615;DHT22;5863;52.832;4.758;2023-07-24T15:23:02;18.80;99.90
11615;DHT22;5863;52.832;4.758;2023-07-24T15:25:30;18.90;99.90
11615;DHT22;5863;52.832;4.758;2023-07-24T15:27:57;18.90;99.90
11615;DHT22;5863;52.832;4.758;2023-07-24T15:30:24;18.90;99.90
11615;DHT22;5863;52.832;4.758;2023-07-24T15:32:51;18.90;99.90
11615;DHT22;5863;52.832;4.758;2023-07-24T15:35:18;18.90;99.90
11615;DHT22;5863;52.832;4.758;2023-07-24T15:37:44;18.90;99.90
11615;DHT22;5863;52.832;4.758;2023-07-24T15:40:12;18.90;99.90
11615;DHT22;5863;52.832;4.758;2023-07-24T15:42:40;18.90;99.90
11615;DHT22;5863;52.832;4.758;2023-07-24T15:45:08;18.80;99.90